createdAt,value
2022-10-04T00:00:40.360Z,7.30
2022-10-04T00:02:33.615Z,7.88
2022-10-04T00:04:26.617Z,7.40
2022-10-04T00:06:19.799Z,6.90
2022-10-04T00:08:22.413Z,7.50
2022-10-04T00:10:18.906Z,7.20
2022-10-04T00:12:18.498Z,6.85
2022-10-04T00:14:15.083Z,8.43
2022-10-04T00:16:05.998Z,7.47
2022-10-04T00:18:18.979Z,6.82
2022-10-04T00:20:56.494Z,7.22
2022-10-04T00:23:26.084Z,7.60
2022-10-04T00:25:20.125Z,7.45
2022-10-04T00:27:17.232Z,8.25
2022-10-04T00:29:32.457Z,8.38
2022-10-04T00:31:24.534Z,7.65
2022-10-04T00:33:34.551Z,7.57
2022-10-04T00:35:47.869Z,7.47
2022-10-04T00:37:57.409Z,7.88
2022-10-04T00:39:55.822Z,8.25
2022-10-04T00:41:57.248Z,8.75
2022-10-04T00:43:49.023Z,7.40
2022-10-04T00:45:42.173Z,6.97
2022-10-04T00:47:38.115Z,7.50
2022-10-04T00:49:31.312Z,7.95
2022-10-04T00:51:26.773Z,8.20
2022-10-04T00:53:35.173Z,8.70
2022-10-04T00:55:29.631Z,9.05
2022-10-04T00:57:21.963Z,8.40
2022-10-04T00:59:37.567Z,9.95
2022-10-04T01:01:29.261Z,9.05
2022-10-04T01:03:23.627Z,8.95
2022-10-04T01:05:17.281Z,9.65
2022-10-04T01:07:09.098Z,8.75
2022-10-04T01:09:05.446Z,9.43
2022-10-04T01:10:58.043Z,9.73
2022-10-04T01:12:52.415Z,9.45
2022-10-04T01:14:49.509Z,9.07
2022-10-04T01:16:39.995Z,10.10
2022-10-04T01:18:32.469Z,10.05
2022-10-04T01:20:32.111Z,9.38
2022-10-04T01:22:40.615Z,10.20
2022-10-04T01:24:35.031Z,10.93
2022-10-04T01:26:40.138Z,9.98
2022-10-04T01:28:30.924Z,8.90
2022-10-04T01:30:21.389Z,10.68
2022-10-04T01:32:12.012Z,10.95
2022-10-04T01:34:03.565Z,10.70
2022-10-04T01:35:53.874Z,10.52
2022-10-04T01:37:46.044Z,10.80
2022-10-04T01:39:36.324Z,10.65
2022-10-04T01:41:29.801Z,10.05
2022-10-04T01:43:26.234Z,11.23
2022-10-04T01:45:20.008Z,10.95
2022-10-04T01:47:13.463Z,11.63
2022-10-04T01:49:05.677Z,10.30
2022-10-04T01:52:50.584Z,11.45
2022-10-04T01:54:43.749Z,11.20
2022-10-04T01:56:40.175Z,10.05
2022-10-04T01:58:33.515Z,10.05
2022-10-04T02:00:24.508Z,11.13
2022-10-04T02:02:22.759Z,12.40
2022-10-04T02:04:21.343Z,11.07
2022-10-04T02:06:14.358Z,11.95
2022-10-04T02:08:08.908Z,13.02
2022-10-04T02:10:02.626Z,13.18
2022-10-04T02:11:53.884Z,15.80
2022-10-04T02:13:45.151Z,13.65
2022-10-04T02:15:36.012Z,13.20
2022-10-04T02:17:28.835Z,14.15
2022-10-04T02:19:19.797Z,15.23
2022-10-04T02:21:11.424Z,14.68
2022-10-04T02:23:02.225Z,17.38
2022-10-04T02:24:56.441Z,16.33
2022-10-04T02:26:50.268Z,16.42
2022-10-04T02:28:40.789Z,16.65
2022-10-04T02:30:35.825Z,15.57
2022-10-04T02:32:26.289Z,16.17
2022-10-04T02:34:18.056Z,16.20
2022-10-04T02:36:09.302Z,17.20
2022-10-04T02:38:10.352Z,18.92
2022-10-04T02:40:08.303Z,16.38
2022-10-04T02:42:02.788Z,17.23
2022-10-04T02:43:55.458Z,17.65
2022-10-04T02:45:50.326Z,16.17
2022-10-04T02:47:44.775Z,18.80
2022-10-04T02:49:37.506Z,18.98
2022-10-04T02:51:31.932Z,20.52
2022-10-04T02:53:25.932Z,19.75
2022-10-04T02:55:20.678Z,20.33
2022-10-04T02:57:15.774Z,19.75
2022-10-04T02:59:07.020Z,19.38
2022-10-04T03:00:59.735Z,22.75
2022-10-04T03:03:10.438Z,18.30
2022-10-04T03:05:05.682Z,19.63
2022-10-04T03:06:57.697Z,17.58
2022-10-04T03:08:51.627Z,20.30
2022-10-04T03:10:43.820Z,18.95
2022-10-04T03:14:26.844Z,17.67
2022-10-04T03:16:17.739Z,18.48
2022-10-04T03:18:07.989Z,19.17
2022-10-04T03:19:59.609Z,19.35
2022-10-04T03:21:52.745Z,18.02
2022-10-04T03:23:43.722Z,16.48
2022-10-04T03:25:41.129Z,16.85
2022-10-04T03:27:34.154Z,17.30
2022-10-04T03:29:26.668Z,15.45
2022-10-04T03:31:17.281Z,16.67
2022-10-04T03:33:07.634Z,15.10
2022-10-04T03:34:59.212Z,15.82
2022-10-04T03:36:51.297Z,15.02
2022-10-04T03:38:41.944Z,17.13
2022-10-04T03:40:33.391Z,16.92
2022-10-04T03:42:25.751Z,18.23
2022-10-04T03:44:18.337Z,15.52
2022-10-04T03:46:10.083Z,16.90
2022-10-04T03:48:04.684Z,16.55
2022-10-04T03:49:56.517Z,16.17
2022-10-04T03:51:49.400Z,15.07
2022-10-04T03:53:43.268Z,15.93
2022-10-04T03:55:36.723Z,15.93
2022-10-04T03:57:27.025Z,14.88
2022-10-04T03:59:19.115Z,16.55
2022-10-04T04:01:19.800Z,16.40
2022-10-04T04:03:16.508Z,17.02
2022-10-04T04:05:10.360Z,16.05
2022-10-04T04:07:02.760Z,17.88
2022-10-04T04:08:54.620Z,17.67
2022-10-04T04:10:47.157Z,17.48
2022-10-04T04:12:39.802Z,17.65
2022-10-04T04:14:31.723Z,16.38
2022-10-04T04:16:24.224Z,15.32
2022-10-04T04:18:18.101Z,14.60
2022-10-04T04:20:22.198Z,17.83
2022-10-04T04:22:15.648Z,17.77
2022-10-04T04:24:11.714Z,18.67
2022-10-04T04:26:15.114Z,16.70
2022-10-04T04:28:13.514Z,16.50
2022-10-04T04:30:07.077Z,16.75
2022-10-04T04:32:00.601Z,17.02
2022-10-04T04:33:56.426Z,16.75
2022-10-04T04:35:46.880Z,16.75
2022-10-04T04:37:38.448Z,16.73
2022-10-04T04:39:30.935Z,17.35
2022-10-04T04:41:23.117Z,17.20
2022-10-04T04:43:17.563Z,16.10
2022-10-04T04:45:15.221Z,17.05
2022-10-04T04:47:07.006Z,17.02
2022-10-04T04:49:02.148Z,17.05
2022-10-04T04:50:54.289Z,17.58
2022-10-04T04:54:35.582Z,17.25
2022-10-04T04:56:28.097Z,17.35
2022-10-04T04:58:20.148Z,18.00
2022-10-04T05:00:17.101Z,17.88
2022-10-04T05:02:27.980Z,17.35
2022-10-04T05:04:20.388Z,16.73
2022-10-04T05:08:14.824Z,17.38
2022-10-04T05:10:28.530Z,17.60
2022-10-04T05:12:21.604Z,16.75
2022-10-04T05:14:14.348Z,16.38
2022-10-04T05:16:10.198Z,18.08
2022-10-04T05:18:01.503Z,19.60
2022-10-04T05:19:53.076Z,16.75
2022-10-04T05:21:45.491Z,19.42
2022-10-04T05:23:35.977Z,17.67
2022-10-04T05:25:29.461Z,17.58
2022-10-04T05:27:25.052Z,17.05
2022-10-04T05:29:17.560Z,16.55
2022-10-04T05:33:14.203Z,18.33
2022-10-04T05:35:14.989Z,18.30
2022-10-04T05:37:25.414Z,17.95
2022-10-04T05:39:22.169Z,17.67
2022-10-04T05:41:20.310Z,17.45
2022-10-04T05:43:29.689Z,18.42
2022-10-04T05:45:22.445Z,18.33
2022-10-04T05:47:15.835Z,18.90
2022-10-04T05:49:08.581Z,18.27
2022-10-04T05:50:59.176Z,19.05
2022-10-04T05:52:51.409Z,19.92
2022-10-04T05:54:41.575Z,18.23
2022-10-04T05:57:13.729Z,19.20
2022-10-04T05:59:08.403Z,19.42
2022-10-04T06:01:17.755Z,18.95
2022-10-04T06:03:28.772Z,19.33
2022-10-04T06:05:28.779Z,20.80
2022-10-04T06:07:25.619Z,20.38
2022-10-04T06:09:30.168Z,19.55
2022-10-04T06:11:33.679Z,19.20
2022-10-04T06:13:41.833Z,20.92
2022-10-04T06:15:59.717Z,19.40
2022-10-04T06:18:00.242Z,20.35
2022-10-04T06:20:03.258Z,20.73
2022-10-04T06:22:05.487Z,22.15
2022-10-04T06:25:50.817Z,20.38
2022-10-04T06:27:43.948Z,22.13
2022-10-04T06:29:39.309Z,20.42
2022-10-04T06:32:01.002Z,22.20
2022-10-04T06:34:04.030Z,20.70
2022-10-04T06:36:14.696Z,23.45
2022-10-04T06:38:30.518Z,22.42
2022-10-04T06:40:54.349Z,23.02
2022-10-04T06:42:55.288Z,21.95
2022-10-04T06:44:54.776Z,23.92
2022-10-04T06:46:48.914Z,22.88
2022-10-04T06:48:55.049Z,23.25
2022-10-04T06:50:49.338Z,23.98
2022-10-04T06:52:48.538Z,22.85
2022-10-04T06:54:51.327Z,23.90
2022-10-04T06:56:55.700Z,22.80
2022-10-04T06:59:08.170Z,24.20
2022-10-04T07:01:06.833Z,22.90
2022-10-04T07:03:02.643Z,21.95
2022-10-04T07:05:08.475Z,21.38
2022-10-04T07:07:12.337Z,22.73
2022-10-04T07:09:05.539Z,21.65
2022-10-04T07:10:58.495Z,21.40
2022-10-04T07:12:53.240Z,21.20
2022-10-04T07:14:45.672Z,20.55
2022-10-04T07:16:39.646Z,19.30
2022-10-04T07:18:34.169Z,21.88
2022-10-04T07:20:27.182Z,20.83
2022-10-04T07:22:22.647Z,20.20
2022-10-04T07:24:26.224Z,21.88
2022-10-04T07:26:22.930Z,19.92
2022-10-04T07:28:16.471Z,19.35
2022-10-04T07:30:11.355Z,19.38
2022-10-04T07:32:07.165Z,19.98
2022-10-04T07:34:01.598Z,20.25
2022-10-04T07:35:54.657Z,20.75
2022-10-04T07:37:50.307Z,19.63
2022-10-04T07:39:47.846Z,20.00
2022-10-04T07:41:45.643Z,19.35
2022-10-04T07:43:45.568Z,20.73
2022-10-04T07:45:39.297Z,19.75
2022-10-04T07:47:31.870Z,19.10
2022-10-04T07:49:23.462Z,20.60
2022-10-04T07:51:19.992Z,20.67
2022-10-04T07:53:12.008Z,20.95
2022-10-04T07:55:13.089Z,21.15
2022-10-04T07:57:08.230Z,19.67
2022-10-04T07:59:14.071Z,22.20
2022-10-04T08:01:08.617Z,21.42
2022-10-04T08:03:15.090Z,20.95
2022-10-04T08:05:17.348Z,19.88
2022-10-04T08:07:16.296Z,20.17
2022-10-04T08:09:18.851Z,22.15
2022-10-04T08:13:16.058Z,20.17
2022-10-04T08:15:25.292Z,21.02
2022-10-04T08:17:40.695Z,20.73
2022-10-04T08:19:42.880Z,21.10
2022-10-04T08:21:42.153Z,19.15
2022-10-04T08:23:57.718Z,20.05
2022-10-04T08:25:56.806Z,20.42
2022-10-04T08:27:54.414Z,19.77
2022-10-04T08:29:57.020Z,19.40
2022-10-04T08:31:56.352Z,18.58
2022-10-04T08:33:59.467Z,20.42
2022-10-04T08:35:59.374Z,20.88
2022-10-04T08:38:00.659Z,20.15
2022-10-04T08:39:58.255Z,20.52
2022-10-04T08:42:09.659Z,19.63
2022-10-04T08:44:25.813Z,21.08
2022-10-04T08:46:54.808Z,20.38
2022-10-04T08:49:13.062Z,19.27
2022-10-04T08:51:41.073Z,20.73
2022-10-04T08:54:21.140Z,20.00
2022-10-04T08:56:18.668Z,19.95
2022-10-04T08:58:15.461Z,18.95
2022-10-04T09:00:13.654Z,18.83
2022-10-04T09:02:17.173Z,18.45
2022-10-04T09:04:37.208Z,17.88
2022-10-04T09:06:36.269Z,16.95
2022-10-04T09:08:54.856Z,16.67
2022-10-04T09:10:51.106Z,16.10
2022-10-04T09:12:54.692Z,16.98
2022-10-04T09:15:14.992Z,16.02
2022-10-04T09:17:22.455Z,16.35
2022-10-04T09:19:23.405Z,16.08
2022-10-04T09:21:27.140Z,16.17
2022-10-04T09:24:00.720Z,16.55
2022-10-04T09:26:11.123Z,16.02
2022-10-04T09:28:21.941Z,15.77
2022-10-04T09:30:18.056Z,15.90
2022-10-04T09:32:34.668Z,14.82
2022-10-04T09:34:40.539Z,15.02
2022-10-04T09:37:01.929Z,14.52
2022-10-04T09:39:31.239Z,14.02
2022-10-04T09:41:46.244Z,13.82
2022-10-04T09:44:15.112Z,13.95
2022-10-04T09:46:17.684Z,14.05
2022-10-04T09:50:57.621Z,14.02
2022-10-04T09:52:55.415Z,13.88
2022-10-04T09:55:01.571Z,13.07
2022-10-04T09:57:22.245Z,13.52
2022-10-04T09:59:27.135Z,13.30
2022-10-04T10:01:22.657Z,14.10
2022-10-04T10:03:46.557Z,13.95
2022-10-04T10:05:49.047Z,13.50
2022-10-04T10:07:47.097Z,13.00
2022-10-04T10:09:41.869Z,13.05
2022-10-04T10:11:38.856Z,13.02
2022-10-04T10:13:59.097Z,13.43
2022-10-04T10:15:56.172Z,12.23
2022-10-04T10:17:53.899Z,12.63
2022-10-04T10:20:03.746Z,12.18
2022-10-04T10:22:04.209Z,11.73
2022-10-04T10:24:29.442Z,12.02
2022-10-04T10:26:59.220Z,12.32
2022-10-04T10:29:13.638Z,12.32
2022-10-04T10:31:47.890Z,12.43
2022-10-04T10:34:24.559Z,11.80
2022-10-04T10:36:49.621Z,11.88
2022-10-04T10:38:54.411Z,12.60
2022-10-04T10:40:57.467Z,11.02
2022-10-04T10:43:08.922Z,11.13
2022-10-04T10:45:19.259Z,10.57
2022-10-04T10:47:22.513Z,9.27
2022-10-04T10:49:32.933Z,9.95
2022-10-04T10:51:43.150Z,8.77
2022-10-04T10:54:00.975Z,9.27
2022-10-04T10:56:16.341Z,9.93
2022-10-04T10:58:31.015Z,10.13
2022-10-04T11:00:23.315Z,9.48
2022-10-04T11:02:48.222Z,10.13
2022-10-04T11:04:51.393Z,9.02
2022-10-04T11:06:57.368Z,10.68
2022-10-04T11:09:13.923Z,9.48
2022-10-04T11:11:20.882Z,10.65
2022-10-04T11:13:38.897Z,9.93
2022-10-04T11:15:52.652Z,11.10
2022-10-04T11:18:05.190Z,10.50
2022-10-04T11:20:26.725Z,9.65
2022-10-04T11:23:02.200Z,10.48
2022-10-04T11:25:12.422Z,10.48
2022-10-04T11:27:15.144Z,11.55
2022-10-04T11:29:14.737Z,11.55
2022-10-04T11:31:33.040Z,11.32
2022-10-04T11:33:56.328Z,11.05
2022-10-04T11:38:03.741Z,11.57
2022-10-04T11:40:09.956Z,12.35
2022-10-04T11:42:06.607Z,12.05
2022-10-04T11:44:36.874Z,11.70
2022-10-04T11:46:35.887Z,12.15
2022-10-04T11:48:35.451Z,12.43
2022-10-04T11:50:36.680Z,11.68
2022-10-04T11:52:52.482Z,12.43
2022-10-04T11:55:06.263Z,11.30
2022-10-04T11:57:14.145Z,10.50
2022-10-04T11:59:24.579Z,10.82
2022-10-04T12:01:45.422Z,11.00
2022-10-04T12:03:55.160Z,10.73
2022-10-04T12:05:57.942Z,11.05
2022-10-04T12:09:47.697Z,10.23
2022-10-04T12:11:53.399Z,9.68
2022-10-04T12:13:54.360Z,10.10
2022-10-04T12:15:58.193Z,9.98
2022-10-04T12:18:31.148Z,10.00
2022-10-04T12:20:35.978Z,10.50
2022-10-04T12:22:45.628Z,10.05
2022-10-04T12:25:17.829Z,9.80
2022-10-04T12:27:52.096Z,9.00
2022-10-04T12:30:12.921Z,9.98
2022-10-04T12:32:08.281Z,9.50
2022-10-04T12:34:05.096Z,9.63
2022-10-04T12:36:03.992Z,9.57
2022-10-04T12:38:13.600Z,9.77
2022-10-04T12:40:22.752Z,9.65
2022-10-04T12:42:24.168Z,9.00
2022-10-04T12:44:25.825Z,8.70
2022-10-04T12:46:24.674Z,9.82
2022-10-04T12:48:22.810Z,9.52
2022-10-04T12:50:19.734Z,10.13
2022-10-04T12:52:15.422Z,8.85
2022-10-04T12:54:17.072Z,9.15
2022-10-04T12:56:15.564Z,8.30
2022-10-04T12:58:11.710Z,8.88
2022-10-04T13:00:12.904Z,8.35
2022-10-04T13:02:16.272Z,10.20
2022-10-04T13:04:26.373Z,9.75
2022-10-04T13:06:23.956Z,8.98
2022-10-04T13:08:22.696Z,9.75
2022-10-04T13:10:29.252Z,9.35
2022-10-04T13:12:30.721Z,10.00
2022-10-04T13:15:08.518Z,9.17
2022-10-04T13:19:18.244Z,9.43
2022-10-04T13:21:10.345Z,8.60
2022-10-04T13:23:03.782Z,7.93
2022-10-04T13:25:02.092Z,8.43
2022-10-04T13:26:55.996Z,9.02
2022-10-04T13:28:51.918Z,8.30
2022-10-04T13:30:48.191Z,8.63
2022-10-04T13:32:42.850Z,8.50
2022-10-04T13:34:38.372Z,8.40
2022-10-04T13:36:37.000Z,8.50
2022-10-04T13:38:42.267Z,8.82
2022-10-04T13:40:38.779Z,8.23
2022-10-04T13:42:41.816Z,8.18
2022-10-04T13:46:43.307Z,8.25
2022-10-04T13:48:42.362Z,7.85
2022-10-04T13:50:46.044Z,8.93
2022-10-04T13:52:43.294Z,8.43
2022-10-04T13:54:36.453Z,8.70
2022-10-04T13:56:49.714Z,8.75
2022-10-04T13:58:46.727Z,8.60
2022-10-04T14:00:50.220Z,8.82
2022-10-04T14:03:01.805Z,8.57
2022-10-04T14:05:32.068Z,8.07
2022-10-04T14:07:54.066Z,8.65
2022-10-04T14:10:01.709Z,8.45
2022-10-04T14:12:38.118Z,9.07
2022-10-04T14:14:41.059Z,8.30
2022-10-04T14:16:49.780Z,8.20
2022-10-04T14:19:23.570Z,8.52
2022-10-04T14:21:43.598Z,7.90
2022-10-04T14:23:55.561Z,8.57
2022-10-04T14:26:07.196Z,8.07
2022-10-04T14:28:23.742Z,7.95
2022-10-04T14:30:17.853Z,7.88
2022-10-04T14:32:30.945Z,8.20
2022-10-04T14:34:40.746Z,7.93
2022-10-04T14:36:48.407Z,7.80
2022-10-04T14:38:48.368Z,8.32
2022-10-04T14:40:49.286Z,7.85
2022-10-04T14:42:55.688Z,8.43
2022-10-04T14:45:10.840Z,7.72
2022-10-04T14:47:13.472Z,8.85
2022-10-04T14:51:13.553Z,8.38
2022-10-04T14:53:14.011Z,9.00
2022-10-04T14:55:26.471Z,8.80
2022-10-04T14:59:21.475Z,8.60
2022-10-04T15:01:19.340Z,8.73
2022-10-04T15:03:24.968Z,8.45
2022-10-04T15:05:40.398Z,8.63
2022-10-04T15:07:32.549Z,7.95
2022-10-04T15:09:50.878Z,9.05
2022-10-04T15:12:14.310Z,9.55
2022-10-04T15:14:20.579Z,8.37
2022-10-04T15:16:33.671Z,9.05
2022-10-04T15:18:45.197Z,8.70
2022-10-04T15:20:49.391Z,9.43
2022-10-04T15:22:42.607Z,8.90
2022-10-04T15:24:45.197Z,8.93
2022-10-04T15:26:50.230Z,8.30
2022-10-04T15:29:03.443Z,8.65
2022-10-04T15:30:58.762Z,8.55
2022-10-04T15:32:56.254Z,9.02
2022-10-04T15:34:50.219Z,8.38
2022-10-04T15:37:09.659Z,9.25
2022-10-04T15:39:03.501Z,7.45
2022-10-04T15:41:00.900Z,8.63
2022-10-04T15:43:19.883Z,8.35
2022-10-04T15:45:26.189Z,8.90
2022-10-04T15:47:21.708Z,8.65
2022-10-04T15:49:37.969Z,8.30
2022-10-04T15:51:44.753Z,7.45
2022-10-04T15:53:48.508Z,7.68
2022-10-04T15:55:57.447Z,7.95
2022-10-04T15:58:13.839Z,7.90
2022-10-04T16:00:11.315Z,7.07
2022-10-04T16:02:33.813Z,7.80
2022-10-04T16:04:41.223Z,7.53
2022-10-04T16:06:41.707Z,7.60
2022-10-04T16:09:16.985Z,6.90
2022-10-04T16:11:46.495Z,7.03
2022-10-04T16:13:57.385Z,7.55
2022-10-04T16:16:21.154Z,7.53
2022-10-04T16:18:28.386Z,6.93
2022-10-04T16:20:36.037Z,7.03
2022-10-04T16:22:28.865Z,7.18
2022-10-04T16:24:52.551Z,7.70
2022-10-04T16:27:06.416Z,7.68
2022-10-04T16:29:09.544Z,8.10
2022-10-04T16:31:20.551Z,6.75
2022-10-04T16:33:30.661Z,6.80
2022-10-04T16:35:26.798Z,6.68
2022-10-04T16:37:41.812Z,6.30
2022-10-04T16:39:36.118Z,7.18
2022-10-04T16:41:32.481Z,7.18
2022-10-04T16:43:27.901Z,6.80
2022-10-04T16:45:41.633Z,7.78
2022-10-04T16:47:34.673Z,6.72
2022-10-04T16:49:28.856Z,8.02
2022-10-04T16:51:44.959Z,6.80
2022-10-04T16:53:44.478Z,7.10
2022-10-04T16:55:51.849Z,6.97
2022-10-04T16:57:42.217Z,7.22
2022-10-04T16:59:47.623Z,6.85
2022-10-04T17:02:03.160Z,7.20
2022-10-04T17:03:59.806Z,6.93
2022-10-04T17:06:12.661Z,6.88
2022-10-04T17:08:39.854Z,6.88
2022-10-04T17:10:34.084Z,7.55
2022-10-04T17:12:27.780Z,7.20
2022-10-04T17:14:47.117Z,7.22
2022-10-04T17:16:38.785Z,6.68
2022-10-04T17:18:36.288Z,6.93
2022-10-04T17:20:29.840Z,6.47
2022-10-04T17:22:28.781Z,7.03
2022-10-04T17:24:24.865Z,7.53
2022-10-04T17:26:24.632Z,7.13
2022-10-04T17:28:26.964Z,6.85
2022-10-04T17:30:21.160Z,6.60
2022-10-04T17:32:18.834Z,7.45
2022-10-04T17:34:13.504Z,7.28
2022-10-04T17:36:29.788Z,6.70
2022-10-04T17:38:25.262Z,7.57
2022-10-04T17:40:27.343Z,7.60
2022-10-04T17:42:29.530Z,6.80
2022-10-04T17:44:44.393Z,7.40
2022-10-04T17:46:41.027Z,7.50
2022-10-04T17:48:42.426Z,7.35
2022-10-04T17:50:37.676Z,7.78
2022-10-04T17:52:31.945Z,7.43
2022-10-04T17:54:24.411Z,7.50
2022-10-04T17:56:25.297Z,7.13
2022-10-04T17:58:19.281Z,7.07
2022-10-04T18:00:11.802Z,7.03
2022-10-04T18:02:10.520Z,7.22
2022-10-04T18:04:09.431Z,7.10
2022-10-04T18:06:03.195Z,7.10
2022-10-04T18:07:56.965Z,7.32
2022-10-04T18:09:49.660Z,8.35
2022-10-04T18:11:44.169Z,7.60
2022-10-04T18:13:38.552Z,7.50
2022-10-04T18:15:33.474Z,7.30
2022-10-04T18:17:32.093Z,7.22
2022-10-04T18:19:32.693Z,6.97
2022-10-04T18:21:26.477Z,7.68
2022-10-04T18:23:18.417Z,7.38
2022-10-04T18:25:14.212Z,7.40
2022-10-04T18:27:16.574Z,7.07
2022-10-04T18:29:11.265Z,7.05
2022-10-04T18:31:18.971Z,7.82
2022-10-04T18:33:14.013Z,7.18
2022-10-04T18:35:20.293Z,6.90
2022-10-04T18:37:19.295Z,7.63
2022-10-04T18:39:19.424Z,6.63
2022-10-04T18:41:16.760Z,7.53
2022-10-04T18:43:26.281Z,6.70
2022-10-04T18:45:23.038Z,6.35
2022-10-04T18:47:17.971Z,7.28
2022-10-04T18:49:15.060Z,6.95
2022-10-04T18:51:26.317Z,7.30
2022-10-04T18:53:29.008Z,7.50
2022-10-04T18:55:29.041Z,6.80
2022-10-04T18:57:27.365Z,7.78
2022-10-04T18:59:28.236Z,7.32
2022-10-04T19:01:32.115Z,7.20
2022-10-04T19:03:30.153Z,7.15
2022-10-04T19:05:26.825Z,6.18
2022-10-04T19:07:22.205Z,6.60
2022-10-04T19:09:17.508Z,6.35
2022-10-04T19:11:12.146Z,5.50
2022-10-04T19:13:12.441Z,6.30
2022-10-04T19:17:58.715Z,4.50
2022-10-04T19:19:55.249Z,4.15
2022-10-04T19:21:55.520Z,3.60
2022-10-04T19:24:04.323Z,3.88
2022-10-04T19:26:29.914Z,3.30
2022-10-04T19:28:11.010Z,3.05
2022-10-04T19:33:50.587Z,3.50
2022-10-04T19:35:53.034Z,3.03
2022-10-04T19:37:52.234Z,3.38
2022-10-04T19:39:51.315Z,3.67
2022-10-04T19:41:49.021Z,3.40
2022-10-04T19:43:45.064Z,3.78
2022-10-04T19:45:41.584Z,3.38
2022-10-04T19:47:46.938Z,4.00
2022-10-04T19:49:42.727Z,3.80
2022-10-04T19:51:36.210Z,4.20
2022-10-04T19:53:33.299Z,3.50
2022-10-04T19:55:29.587Z,3.35
2022-10-04T19:57:31.977Z,3.80
2022-10-04T19:59:24.980Z,3.33
2022-10-04T20:01:17.220Z,3.33
2022-10-04T20:03:10.615Z,2.85
2022-10-04T20:05:00.944Z,2.85
2022-10-04T20:06:54.584Z,2.53
2022-10-04T20:08:50.576Z,2.50
2022-10-04T20:10:42.400Z,2.30
2022-10-04T20:12:35.631Z,2.28
2022-10-04T20:15:07.938Z,2.10
2022-10-04T20:17:05.255Z,2.17
2022-10-04T20:18:59.387Z,2.03
2022-10-04T20:21:04.412Z,1.67
2022-10-04T20:22:56.290Z,1.98
2022-10-04T20:24:51.196Z,2.15
2022-10-04T20:26:43.639Z,2.03
2022-10-04T20:28:40.091Z,2.03
2022-10-04T20:30:58.289Z,2.15
2022-10-04T20:32:58.991Z,2.08
2022-10-04T20:34:49.888Z,1.73
2022-10-04T20:36:50.756Z,2.15
2022-10-04T20:38:59.082Z,2.00
2022-10-04T20:40:50.992Z,1.95
2022-10-04T20:42:41.584Z,1.85
2022-10-04T20:44:43.250Z,1.95
2022-10-04T20:46:36.532Z,1.90
2022-10-04T20:48:28.234Z,2.10
2022-10-04T20:50:29.777Z,2.33
2022-10-04T20:52:20.596Z,2.07
2022-10-04T20:54:16.131Z,2.15
2022-10-04T20:56:22.331Z,2.20
2022-10-04T20:58:28.283Z,2.17
2022-10-04T21:00:20.665Z,2.10
2022-10-04T21:04:12.748Z,2.58
2022-10-04T21:06:05.745Z,2.58
2022-10-04T21:08:22.921Z,2.58
2022-10-04T21:10:17.453Z,2.53
2022-10-04T21:12:28.012Z,2.60
2022-10-04T21:14:22.887Z,3.13
2022-10-04T21:16:39.392Z,2.63
2022-10-04T21:18:29.832Z,2.65
2022-10-04T21:20:42.124Z,2.20
2022-10-04T21:22:37.229Z,2.50
2022-10-04T21:24:38.156Z,2.92
2022-10-04T21:26:28.466Z,2.60
2022-10-04T21:28:31.719Z,2.17
2022-10-04T21:30:22.143Z,2.10
2022-10-04T21:32:12.819Z,2.50
2022-10-04T21:34:03.437Z,2.22
2022-10-04T21:35:53.837Z,2.30
2022-10-04T21:37:44.162Z,1.95
2022-10-04T21:39:34.381Z,2.60
2022-10-04T21:41:24.685Z,2.20
2022-10-04T21:43:14.880Z,2.40
2022-10-04T21:45:07.458Z,2.20
2022-10-04T21:46:58.035Z,2.15
2022-10-04T21:48:48.340Z,2.35
2022-10-04T21:50:38.598Z,1.80
2022-10-04T21:52:29.373Z,2.20
2022-10-04T21:54:19.847Z,2.00
2022-10-04T21:56:10.649Z,1.98
2022-10-04T21:58:01.257Z,2.15
2022-10-04T21:59:51.821Z,2.20
2022-10-04T22:01:43.714Z,2.20
2022-10-04T22:03:34.001Z,2.35
2022-10-04T22:05:24.298Z,2.42
2022-10-04T22:07:14.951Z,2.10
2022-10-04T22:09:05.412Z,2.78
2022-10-04T22:10:57.924Z,2.88
2022-10-04T22:14:38.797Z,2.80
2022-10-04T22:16:29.333Z,3.03
2022-10-04T22:18:21.576Z,3.40
2022-10-04T22:20:12.095Z,3.90
2022-10-04T22:22:03.459Z,4.25
2022-10-04T22:23:53.784Z,4.10
2022-10-04T22:25:44.100Z,4.53
2022-10-04T22:27:34.411Z,4.40
2022-10-04T22:29:26.082Z,3.90
2022-10-04T22:31:18.871Z,4.43
2022-10-04T22:33:26.572Z,4.47
2022-10-04T22:35:19.157Z,3.97
2022-10-04T22:37:11.230Z,4.28
2022-10-04T22:39:04.689Z,3.90
2022-10-04T22:40:55.123Z,4.18
2022-10-04T22:42:46.373Z,3.72
2022-10-04T22:44:38.554Z,3.58
2022-10-04T22:46:36.223Z,3.83
2022-10-04T22:48:28.013Z,3.08
2022-10-04T22:50:30.809Z,3.20
2022-10-04T22:52:22.870Z,2.63
2022-10-04T22:54:15.656Z,2.58
2022-10-04T22:56:06.533Z,2.40
2022-10-04T22:57:57.159Z,2.28
2022-10-04T22:59:49.536Z,2.63
2022-10-04T23:03:32.617Z,2.03
2022-10-04T23:05:23.321Z,2.35
2022-10-04T23:07:13.965Z,2.00
2022-10-04T23:09:04.703Z,2.30
2022-10-04T23:10:56.114Z,2.25
2022-10-04T23:12:47.221Z,2.10
2022-10-04T23:14:37.475Z,2.00
2022-10-04T23:16:27.861Z,1.83
2022-10-04T23:18:18.615Z,2.15
2022-10-04T23:20:14.411Z,2.45
2022-10-04T23:22:09.853Z,2.10
2022-10-04T23:24:09.407Z,2.20
2022-10-04T23:25:59.833Z,2.58
2022-10-04T23:27:50.505Z,2.35
2022-10-04T23:29:40.891Z,2.40
2022-10-04T23:31:31.616Z,2.17
2022-10-04T23:33:22.597Z,2.42
2022-10-04T23:35:20.658Z,2.00
2022-10-04T23:37:15.781Z,2.10
2022-10-04T23:39:12.743Z,2.20
2022-10-04T23:41:03.133Z,2.42
2022-10-04T23:42:56.058Z,2.45
2022-10-04T23:44:48.294Z,1.80
2022-10-04T23:46:38.888Z,2.28
2022-10-04T23:48:30.094Z,2.40
2022-10-04T23:50:24.997Z,2.00
2022-10-04T23:52:19.594Z,2.00
2022-10-04T23:54:13.057Z,1.90
2022-10-04T23:56:08.340Z,2.00
2022-10-04T23:57:59.510Z,1.90
2022-10-04T23:59:50.310Z,1.90
